createdAt,value
2023-04-15T00:01:28.493Z,5.63
2023-04-15T00:03:34.498Z,6.53
2023-04-15T00:05:38.417Z,5.97
2023-04-15T00:07:43.166Z,5.07
2023-04-15T00:09:46.549Z,4.60
2023-04-15T00:11:51.570Z,4.37
2023-04-15T00:13:54.879Z,4.10
2023-04-15T00:15:58.212Z,3.80
2023-04-15T00:18:02.376Z,2.97
2023-04-15T00:20:06.505Z,3.10
2023-04-15T00:22:09.824Z,3.30
2023-04-15T00:24:14.470Z,3.53
2023-04-15T00:26:18.912Z,3.07
2023-04-15T00:28:24.155Z,3.30
2023-04-15T00:30:27.578Z,4.03
2023-04-15T00:32:31.130Z,4.30
2023-04-15T00:34:34.468Z,3.40
2023-04-15T00:36:38.217Z,2.80
2023-04-15T00:38:41.638Z,2.70
2023-04-15T00:40:46.709Z,3.10
2023-04-15T00:42:50.129Z,3.43
2023-04-15T00:44:53.471Z,3.50
2023-04-15T00:46:59.538Z,3.20
2023-04-15T00:49:05.471Z,3.00
2023-04-15T00:51:10.677Z,2.77
2023-04-15T00:53:14.003Z,2.77
2023-04-15T00:55:17.637Z,2.90
2023-04-15T00:57:23.918Z,3.10
2023-04-15T00:59:28.006Z,2.67
2023-04-15T01:01:32.780Z,2.77
2023-04-15T01:03:36.672Z,2.70
2023-04-15T01:05:40.458Z,2.40
2023-04-15T01:07:43.902Z,3.17
2023-04-15T01:09:48.044Z,3.30
2023-04-15T01:11:51.771Z,3.20
2023-04-15T01:13:57.416Z,2.67
2023-04-15T01:16:02.910Z,2.63
2023-04-15T01:18:07.475Z,3.90
2023-04-15T01:20:12.175Z,3.10
2023-04-15T01:22:16.067Z,5.10
2023-04-15T01:24:20.217Z,5.27
2023-04-15T01:26:25.415Z,4.03
2023-04-15T01:28:28.788Z,5.13
2023-04-15T01:30:35.266Z,6.23
2023-04-15T01:32:38.957Z,5.67
2023-04-15T01:34:42.418Z,4.90
2023-04-15T01:36:45.859Z,4.53
2023-04-15T01:38:51.355Z,4.20
2023-04-15T01:40:54.776Z,3.03
2023-04-15T01:42:59.480Z,3.03
2023-04-15T01:45:03.039Z,3.30
2023-04-15T01:47:06.860Z,4.40
2023-04-15T01:49:10.335Z,4.23
2023-04-15T01:51:13.932Z,7.70
2023-04-15T01:53:17.356Z,9.47
2023-04-15T01:55:21.152Z,13.53
2023-04-15T01:57:24.587Z,9.43
2023-04-15T01:59:29.961Z,7.50
2023-04-15T02:01:33.948Z,5.57
2023-04-15T02:03:38.916Z,4.87
2023-04-15T02:05:42.608Z,4.50
2023-04-15T02:07:47.412Z,3.97
2023-04-15T02:09:50.722Z,4.27
2023-04-15T02:11:54.718Z,4.10
2023-04-15T02:13:58.078Z,3.40
2023-04-15T02:16:04.647Z,3.70
2023-04-15T02:18:08.147Z,3.67
2023-04-15T02:20:13.299Z,4.37
2023-04-15T02:22:18.759Z,4.10
2023-04-15T02:24:23.057Z,4.10
2023-04-15T02:26:26.471Z,3.77
2023-04-15T02:28:31.123Z,3.93
2023-04-15T02:30:35.134Z,3.90
2023-04-15T02:32:44.841Z,3.50
2023-04-15T02:34:48.289Z,3.63
2023-04-15T02:36:55.985Z,3.40
2023-04-15T02:38:59.922Z,3.27
2023-04-15T02:41:04.810Z,3.40
2023-04-15T02:43:08.292Z,3.47
2023-04-15T02:45:13.192Z,3.80
2023-04-15T02:47:18.068Z,3.00
2023-04-15T02:49:23.083Z,3.50
2023-04-15T02:51:27.082Z,3.30
2023-04-15T02:53:30.416Z,4.30
2023-04-15T02:55:34.238Z,3.17
2023-04-15T02:57:39.208Z,4.00
2023-04-15T02:59:44.991Z,4.10
2023-04-15T03:01:48.475Z,4.27
2023-04-15T03:03:52.032Z,4.10
2023-04-15T03:05:56.932Z,3.17
2023-04-15T03:08:01.812Z,3.70
2023-04-15T03:10:05.626Z,3.67
2023-04-15T03:12:09.059Z,3.67
2023-04-15T03:14:12.438Z,3.23
2023-04-15T03:16:19.664Z,2.80
2023-04-15T03:18:23.768Z,4.93
2023-04-15T03:20:27.553Z,7.17
2023-04-15T03:22:32.487Z,10.20
2023-04-15T03:24:36.404Z,8.60
2023-04-15T03:26:39.913Z,5.90
2023-04-15T03:28:49.361Z,4.97
2023-04-15T03:30:54.525Z,4.20
2023-04-15T03:32:57.848Z,4.07
2023-04-15T03:35:01.256Z,4.03
2023-04-15T03:37:04.741Z,3.93
2023-04-15T03:39:09.471Z,10.87
2023-04-15T03:41:13.120Z,14.73
2023-04-15T03:43:16.633Z,10.47
2023-04-15T03:45:20.077Z,8.97
2023-04-15T03:47:23.772Z,6.70
2023-04-15T03:49:27.108Z,6.30
2023-04-15T03:51:31.358Z,4.23
2023-04-15T03:53:34.683Z,4.40
2023-04-15T03:55:39.320Z,3.70
2023-04-15T03:57:42.896Z,3.87
2023-04-15T03:59:46.146Z,3.60
2023-04-15T04:01:49.543Z,3.60
2023-04-15T04:03:53.280Z,3.77
2023-04-15T04:05:57.101Z,3.70
2023-04-15T04:08:00.627Z,3.83
2023-04-15T04:10:04.729Z,2.77
2023-04-15T04:12:09.530Z,3.97
2023-04-15T04:14:16.387Z,3.50
2023-04-15T04:16:20.140Z,3.90
2023-04-15T04:18:28.108Z,3.47
2023-04-15T04:20:35.223Z,3.77
2023-04-15T04:22:40.701Z,3.40
2023-04-15T04:24:49.253Z,4.07
2023-04-15T04:26:53.058Z,3.73
2023-04-15T04:28:57.690Z,4.90
2023-04-15T04:31:01.222Z,4.13
2023-04-15T04:33:04.856Z,4.10
2023-04-15T04:35:08.973Z,3.50
2023-04-15T04:37:12.252Z,11.43
2023-04-15T04:39:15.674Z,8.80
2023-04-15T04:41:19.108Z,7.97
2023-04-15T04:43:23.439Z,7.20
2023-04-15T04:45:28.159Z,6.70
2023-04-15T04:47:31.806Z,8.00
2023-04-15T04:49:35.593Z,11.03
2023-04-15T04:51:39.327Z,6.47
2023-04-15T04:53:43.139Z,5.67
2023-04-15T04:55:46.696Z,5.37
2023-04-15T04:57:49.965Z,5.27
2023-04-15T04:59:53.273Z,4.20
2023-04-15T05:01:57.942Z,4.30
2023-04-15T05:04:01.657Z,4.77
2023-04-15T05:06:07.291Z,4.83
2023-04-15T05:08:11.167Z,5.00
2023-04-15T05:10:15.316Z,4.87
2023-04-15T05:12:18.688Z,4.93
2023-04-15T05:14:23.417Z,5.33
2023-04-15T05:16:26.920Z,4.77
2023-04-15T05:18:32.045Z,4.47
2023-04-15T05:20:35.735Z,4.70
2023-04-15T05:22:39.036Z,4.50
2023-04-15T05:24:43.118Z,5.07
2023-04-15T05:26:46.538Z,5.43
2023-04-15T05:28:50.205Z,8.80
2023-04-15T05:30:53.536Z,14.43
2023-04-15T05:32:57.029Z,22.93
2023-04-15T05:35:01.784Z,14.30
2023-04-15T05:37:05.072Z,12.33
2023-04-15T05:39:09.030Z,10.00
2023-04-15T05:41:12.392Z,7.83
2023-04-15T05:43:15.701Z,7.37
2023-04-15T05:45:19.169Z,6.37
2023-04-15T05:47:22.882Z,5.30
2023-04-15T05:49:26.505Z,6.37
2023-04-15T05:51:31.340Z,5.90
2023-04-15T05:53:34.645Z,4.40
2023-04-15T05:55:38.076Z,5.80
2023-04-15T05:57:41.458Z,6.97
2023-04-15T05:59:45.015Z,5.83
2023-04-15T06:01:48.578Z,5.83
2023-04-15T06:03:52.247Z,6.70
2023-04-15T06:05:55.663Z,6.67
2023-04-15T06:08:00.346Z,5.97
2023-04-15T06:10:03.898Z,6.50
2023-04-15T06:12:12.033Z,6.30
2023-04-15T06:14:15.382Z,6.67
2023-04-15T06:16:18.781Z,6.50
2023-04-15T06:18:22.699Z,5.80
2023-04-15T06:20:26.141Z,8.73
2023-04-15T06:22:29.477Z,7.37
2023-04-15T06:24:34.181Z,11.40
2023-04-15T06:26:37.558Z,10.53
2023-04-15T06:28:40.913Z,10.07
2023-04-15T06:30:44.293Z,9.30
2023-04-15T06:32:48.522Z,7.93
2023-04-15T06:34:51.864Z,6.67
2023-04-15T06:36:55.508Z,6.60
2023-04-15T06:38:59.154Z,6.00
2023-04-15T06:41:04.629Z,5.77
2023-04-15T06:43:08.056Z,5.17
2023-04-15T06:45:12.490Z,4.57
2023-04-15T06:47:16.109Z,5.70
2023-04-15T06:49:19.377Z,5.03
2023-04-15T06:51:25.588Z,5.33
2023-04-15T06:53:30.036Z,5.50
2023-04-15T06:55:33.967Z,4.40
2023-04-15T06:57:38.757Z,4.00
2023-04-15T06:59:43.030Z,5.53
2023-04-15T07:01:46.469Z,5.20
2023-04-15T07:03:49.874Z,5.07
2023-04-15T07:05:53.414Z,5.83
2023-04-15T07:07:57.179Z,5.77
2023-04-15T07:10:02.052Z,5.60
2023-04-15T07:12:05.555Z,5.80
2023-04-15T07:14:10.385Z,5.17
2023-04-15T07:16:13.912Z,4.77
2023-04-15T07:18:17.193Z,5.50
2023-04-15T07:20:20.510Z,5.03
2023-04-15T07:22:23.881Z,5.90
2023-04-15T07:24:27.577Z,4.83
2023-04-15T07:26:31.012Z,5.40
2023-04-15T07:28:34.349Z,4.20
2023-04-15T07:30:39.526Z,4.33
2023-04-15T07:32:43.599Z,3.60
2023-04-15T07:34:47.029Z,3.70
2023-04-15T07:36:51.820Z,4.20
2023-04-15T07:38:55.344Z,3.63
2023-04-15T07:40:58.995Z,2.90
2023-04-15T07:43:02.566Z,3.40
2023-04-15T07:45:08.522Z,4.77
2023-04-15T07:47:13.994Z,3.80
2023-04-15T07:49:19.312Z,3.10
2023-04-15T07:51:22.902Z,3.47
2023-04-15T07:53:26.545Z,3.30
2023-04-15T07:55:30.676Z,3.73
2023-04-15T07:57:34.211Z,4.30
2023-04-15T07:59:37.766Z,3.30
2023-04-15T08:01:41.290Z,2.90
2023-04-15T08:03:46.323Z,2.23
2023-04-15T08:05:50.031Z,2.30
2023-04-15T08:07:53.436Z,2.30
2023-04-15T08:09:57.005Z,2.90
2023-04-15T08:12:01.053Z,2.37
2023-04-15T08:14:04.396Z,2.30
2023-04-15T08:16:22.601Z,2.60
2023-04-15T08:18:26.427Z,2.40
2023-04-15T08:20:31.165Z,2.40
2023-04-15T08:22:34.571Z,2.60
2023-04-15T08:24:39.169Z,3.13
2023-04-15T08:26:43.308Z,2.67
2023-04-15T08:28:47.848Z,2.10
2023-04-15T08:30:51.584Z,2.67
2023-04-15T08:32:55.266Z,1.90
2023-04-15T08:34:58.711Z,1.73
2023-04-15T08:37:03.543Z,2.40
2023-04-15T08:39:07.017Z,2.03
2023-04-15T08:41:20.109Z,2.50
2023-04-15T08:43:26.947Z,3.03
2023-04-15T08:45:30.710Z,2.47
2023-04-15T08:47:35.206Z,2.17
2023-04-15T08:49:41.969Z,2.97
2023-04-15T08:51:46.281Z,2.67
2023-04-15T08:53:51.490Z,2.27
2023-04-15T08:55:58.756Z,2.57
2023-04-15T08:58:03.378Z,2.77
2023-04-15T09:00:09.381Z,1.87
2023-04-15T09:02:13.515Z,2.00
2023-04-15T09:04:17.965Z,2.40
2023-04-15T09:06:22.256Z,2.10
2023-04-15T09:08:25.722Z,2.67
2023-04-15T09:10:30.911Z,3.03
2023-04-15T09:12:36.060Z,2.93
2023-04-15T09:14:41.385Z,4.17
2023-04-15T09:17:02.007Z,4.70
2023-04-15T09:19:22.626Z,2.50
2023-04-15T09:21:26.151Z,2.60
2023-04-15T09:23:29.521Z,2.40
2023-04-15T09:25:35.043Z,2.20
2023-04-15T09:27:38.581Z,2.53
2023-04-15T09:29:42.771Z,2.07
2023-04-15T09:31:46.411Z,2.63
2023-04-15T09:33:57.588Z,2.20
2023-04-15T09:36:03.512Z,3.00
2023-04-15T09:38:08.489Z,2.83
2023-04-15T09:40:13.076Z,3.83
2023-04-15T09:42:24.062Z,2.80
2023-04-15T09:44:28.228Z,2.60
2023-04-15T09:46:44.863Z,2.87
2023-04-15T09:48:48.390Z,3.40
2023-04-15T09:50:53.626Z,2.80
2023-04-15T09:52:57.411Z,2.60
2023-04-15T09:55:01.516Z,4.40
2023-04-15T09:57:09.842Z,3.87
2023-04-15T09:59:14.558Z,3.63
2023-04-15T10:01:18.010Z,3.43
2023-04-15T10:03:23.793Z,3.07
2023-04-15T10:05:29.724Z,3.47
2023-04-15T10:07:33.903Z,3.80
2023-04-15T10:09:39.354Z,3.70
2023-04-15T10:11:44.299Z,3.60
2023-04-15T10:13:50.522Z,3.80
2023-04-15T10:15:59.559Z,3.93
2023-04-15T10:18:04.081Z,3.13
2023-04-15T10:20:09.684Z,3.50
2023-04-15T10:22:13.137Z,4.30
2023-04-15T10:24:17.565Z,3.17
2023-04-15T10:26:21.744Z,3.00
2023-04-15T10:28:26.456Z,2.77
2023-04-15T10:30:31.385Z,2.43
2023-04-15T10:32:36.631Z,2.70
2023-04-15T10:34:40.936Z,2.47
2023-04-15T10:36:44.365Z,2.90
2023-04-15T10:38:47.662Z,2.83
2023-04-15T10:40:51.661Z,3.47
2023-04-15T10:42:56.471Z,3.63
2023-04-15T10:44:59.841Z,4.93
2023-04-15T10:47:10.955Z,3.60
2023-04-15T10:49:17.565Z,3.40
2023-04-15T10:51:32.621Z,3.57
2023-04-15T10:53:37.872Z,2.50
2023-04-15T10:55:41.203Z,2.60
2023-04-15T10:57:45.334Z,3.53
2023-04-15T11:00:04.718Z,2.37
2023-04-15T11:02:09.267Z,3.00
2023-04-15T11:04:12.902Z,2.83
2023-04-15T11:06:17.650Z,2.80
2023-04-15T11:08:21.987Z,1.97
2023-04-15T11:10:55.844Z,2.93
2023-04-15T11:13:01.157Z,2.40
2023-04-15T11:15:28.205Z,2.67
2023-04-15T11:17:31.753Z,3.00
2023-04-15T11:19:39.117Z,3.77
2023-04-15T11:21:43.771Z,2.97
2023-04-15T11:23:47.354Z,3.00
2023-04-15T11:25:51.291Z,2.90
2023-04-15T11:27:55.379Z,3.10
2023-04-15T11:29:58.669Z,2.80
2023-04-15T11:32:10.419Z,2.70
2023-04-15T11:34:13.985Z,2.80
2023-04-15T11:36:17.824Z,3.43
2023-04-15T11:38:22.805Z,3.60
2023-04-15T11:40:28.952Z,3.10
2023-04-15T11:42:46.462Z,4.23
2023-04-15T11:45:09.317Z,4.70
2023-04-15T11:47:24.077Z,4.30
2023-04-15T11:49:28.675Z,4.70
2023-04-15T11:51:34.318Z,6.90
2023-04-15T11:53:41.457Z,5.70
2023-04-15T11:55:46.984Z,6.50
2023-04-15T11:57:51.113Z,6.40
2023-04-15T11:59:56.299Z,8.23
2023-04-15T12:01:59.776Z,5.70
2023-04-15T12:04:04.618Z,10.33
2023-04-15T12:06:12.330Z,6.00
2023-04-15T12:08:15.781Z,6.53
2023-04-15T12:10:20.514Z,7.17
2023-04-15T12:12:27.712Z,7.30
2023-04-15T12:14:32.539Z,7.53
2023-04-15T12:16:49.175Z,7.70
2023-04-15T12:18:56.034Z,7.30
2023-04-15T12:21:09.980Z,7.07
2023-04-15T12:23:13.446Z,6.50
2023-04-15T12:25:16.928Z,6.93
2023-04-15T12:27:21.900Z,8.03
2023-04-15T12:29:27.366Z,7.53
2023-04-15T12:31:31.066Z,8.07
2023-04-15T12:33:34.707Z,6.73
2023-04-15T12:35:38.228Z,8.13
2023-04-15T12:37:41.511Z,8.57
2023-04-15T12:39:46.878Z,7.30
2023-04-15T12:41:50.254Z,6.47
2023-04-15T12:43:54.954Z,5.57
2023-04-15T12:45:58.313Z,6.00
2023-04-15T12:48:02.068Z,5.80
2023-04-15T12:50:06.455Z,4.37
2023-04-15T12:52:10.021Z,5.50
2023-04-15T12:54:13.384Z,4.20
2023-04-15T12:56:16.969Z,8.07
2023-04-15T12:58:20.543Z,5.10
2023-04-15T13:00:25.375Z,4.77
2023-04-15T13:02:29.360Z,4.40
2023-04-15T13:04:32.820Z,4.53
2023-04-15T13:06:36.359Z,3.50
2023-04-15T13:08:42.722Z,4.67
2023-04-15T13:10:49.099Z,6.43
2023-04-15T13:12:53.698Z,6.47
2023-04-15T13:14:57.017Z,5.23
2023-04-15T13:17:02.837Z,4.93
2023-04-15T13:19:06.443Z,5.23
2023-04-15T13:21:10.934Z,4.43
2023-04-15T13:23:14.269Z,4.53
2023-04-15T13:25:17.621Z,5.83
2023-04-15T13:27:21.367Z,4.37
2023-04-15T13:29:24.689Z,3.90
2023-04-15T13:31:28.287Z,4.47
2023-04-15T13:33:33.186Z,4.87
2023-04-15T13:35:36.620Z,6.67
2023-04-15T13:37:40.388Z,5.43
2023-04-15T13:39:43.772Z,4.40
2023-04-15T13:41:48.435Z,4.10
2023-04-15T13:43:51.811Z,3.20
2023-04-15T13:45:55.289Z,3.50
2023-04-15T13:47:58.806Z,2.93
2023-04-15T13:50:03.611Z,3.07
2023-04-15T13:52:07.247Z,3.37
2023-04-15T13:54:10.596Z,2.70
2023-04-15T13:56:14.128Z,3.00
2023-04-15T13:58:17.508Z,3.53
2023-04-15T14:00:20.847Z,3.30
2023-04-15T14:02:24.368Z,3.57
2023-04-15T14:04:27.971Z,3.73
2023-04-15T14:06:32.851Z,3.33
2023-04-15T14:08:36.368Z,3.43
2023-04-15T14:10:39.784Z,4.50
2023-04-15T14:12:43.129Z,4.23
2023-04-15T14:14:46.968Z,4.10
2023-04-15T14:16:50.409Z,3.20
2023-04-15T14:18:54.599Z,3.27
2023-04-15T14:20:57.946Z,3.23
2023-04-15T14:23:02.733Z,3.73
2023-04-15T14:25:10.542Z,2.90
2023-04-15T14:27:16.767Z,2.90
2023-04-15T14:29:20.200Z,2.87
2023-04-15T14:31:23.571Z,3.97
2023-04-15T14:33:26.977Z,3.67
2023-04-15T14:35:30.531Z,3.87
2023-04-15T14:37:33.893Z,3.73
2023-04-15T14:39:38.580Z,4.33
2023-04-15T14:41:41.936Z,3.20
2023-04-15T14:43:45.301Z,3.67
2023-04-15T14:45:48.905Z,2.63
2023-04-15T14:47:53.105Z,3.83
2023-04-15T14:49:56.482Z,3.70
2023-04-15T14:52:00.058Z,3.83
2023-04-15T14:54:03.785Z,3.00
2023-04-15T14:56:09.071Z,4.00
2023-04-15T14:58:12.457Z,3.40
2023-04-15T15:00:16.501Z,4.07
2023-04-15T15:02:37.372Z,5.30
2023-04-15T15:04:42.220Z,5.70
2023-04-15T15:06:46.722Z,6.60
2023-04-15T15:08:52.002Z,5.40
2023-04-15T15:10:55.526Z,6.50
2023-04-15T15:13:00.250Z,5.07
2023-04-15T15:15:12.178Z,5.80
2023-04-15T15:17:16.088Z,6.07
2023-04-15T15:19:19.408Z,5.17
2023-04-15T15:21:22.847Z,5.77
2023-04-15T15:23:26.155Z,6.30
2023-04-15T15:25:29.927Z,5.40
2023-04-15T15:27:33.305Z,5.70
2023-04-15T15:29:38.694Z,5.00
2023-04-15T15:31:42.130Z,3.70
2023-04-15T15:33:45.728Z,2.90
2023-04-15T15:35:49.171Z,3.40
2023-04-15T15:37:53.331Z,3.70
2023-04-15T15:39:58.911Z,4.90
2023-04-15T15:42:02.438Z,4.37
2023-04-15T15:44:05.913Z,4.83
2023-04-15T15:46:10.976Z,4.30
2023-04-15T15:48:14.581Z,4.40
2023-04-15T15:50:18.004Z,4.37
2023-04-15T15:52:21.630Z,3.87
2023-04-15T15:54:25.809Z,3.67
2023-04-15T15:56:29.103Z,3.80
2023-04-15T15:58:32.787Z,3.47
2023-04-15T16:00:36.664Z,3.10
2023-04-15T16:04:47.758Z,3.03
2023-04-15T16:06:51.127Z,3.50
2023-04-15T16:08:54.562Z,3.97
2023-04-15T16:10:58.432Z,6.07
2023-04-15T16:13:02.240Z,3.30
2023-04-15T16:15:06.558Z,2.90
2023-04-15T16:17:10.237Z,2.50
2023-04-15T16:19:15.300Z,3.37
2023-04-15T16:21:20.200Z,4.40
2023-04-15T16:23:24.074Z,3.20
2023-04-15T16:25:27.523Z,3.10
2023-04-15T16:27:30.870Z,3.47
2023-04-15T16:29:34.386Z,3.60
2023-04-15T16:31:39.826Z,3.87
2023-04-15T16:33:43.265Z,3.90
2023-04-15T16:35:48.021Z,3.50
2023-04-15T16:37:51.484Z,2.93
2023-04-15T16:39:54.749Z,4.73
2023-04-15T16:41:58.199Z,4.67
2023-04-15T16:44:03.176Z,5.27
2023-04-15T16:46:06.677Z,4.70
2023-04-15T16:48:10.120Z,4.43
2023-04-15T16:50:13.611Z,4.37
2023-04-15T16:52:18.516Z,4.40
2023-04-15T16:54:21.854Z,3.80
2023-04-15T16:56:25.333Z,4.40
2023-04-15T16:58:28.817Z,3.50
2023-04-15T17:00:32.925Z,3.37
2023-04-15T17:02:36.810Z,4.00
2023-04-15T17:04:41.591Z,3.20
2023-04-15T17:06:44.973Z,2.90
2023-04-15T17:08:49.700Z,4.07
2023-04-15T17:10:53.049Z,3.00
2023-04-15T17:12:57.309Z,3.73
2023-04-15T17:15:00.702Z,4.50
2023-04-15T17:17:04.124Z,3.97
2023-04-15T17:19:07.869Z,4.80
2023-04-15T17:21:11.380Z,5.07
2023-04-15T17:23:14.897Z,4.03
2023-04-15T17:25:19.763Z,4.70
2023-04-15T17:27:24.704Z,4.80
2023-04-15T17:29:28.054Z,4.50
2023-04-15T17:31:31.838Z,4.53
2023-04-15T17:34:00.328Z,4.60
2023-04-15T17:35:58.710Z,4.53
2023-04-15T17:38:02.249Z,5.17
2023-04-15T17:40:08.611Z,5.80
2023-04-15T17:42:14.536Z,5.10
2023-04-15T17:44:19.205Z,4.60
2023-04-15T17:46:22.585Z,5.00
2023-04-15T17:48:26.739Z,4.60
2023-04-15T17:50:30.092Z,4.87
2023-04-15T17:52:33.455Z,4.50
2023-04-15T17:54:36.887Z,4.90
2023-04-15T17:56:40.412Z,3.90
2023-04-15T17:58:45.197Z,4.27
2023-04-15T18:00:48.790Z,4.50
2023-04-15T18:02:52.904Z,5.53
2023-04-15T18:04:56.532Z,5.20
2023-04-15T18:07:00.111Z,4.33
2023-04-15T18:09:03.978Z,5.23
2023-04-15T18:11:08.384Z,6.03
2023-04-15T18:13:11.691Z,5.13
2023-04-15T18:15:16.412Z,5.77
2023-04-15T18:17:20.265Z,6.17
2023-04-15T18:19:25.695Z,6.10
2023-04-15T18:21:29.069Z,4.90
2023-04-15T18:23:32.446Z,6.07
2023-04-15T18:25:38.056Z,5.97
2023-04-15T18:27:41.547Z,7.37
2023-04-15T18:29:45.102Z,6.10
2023-04-15T18:31:49.832Z,8.23
2023-04-15T18:33:53.234Z,6.97
2023-04-15T18:35:57.375Z,7.30
2023-04-15T18:38:00.755Z,6.60
2023-04-15T18:40:04.055Z,6.47
2023-04-15T18:42:07.413Z,7.13
2023-04-15T18:44:10.851Z,6.20
2023-04-15T18:46:14.582Z,6.50
2023-04-15T18:48:19.564Z,5.83
2023-04-15T18:50:23.149Z,6.03
2023-04-15T18:52:26.562Z,6.30
2023-04-15T18:54:30.001Z,5.67
2023-04-15T18:56:33.416Z,6.27
2023-04-15T18:59:26.964Z,6.23
2023-04-15T19:01:00.764Z,5.77
2023-04-15T19:03:04.458Z,6.80
2023-04-15T19:05:09.908Z,5.63
2023-04-15T19:07:13.246Z,6.30
2023-04-15T19:09:16.881Z,6.80
2023-04-15T19:11:20.213Z,5.80
2023-04-15T19:13:24.244Z,6.40
2023-04-15T19:15:27.606Z,7.57
2023-04-15T19:17:31.350Z,8.30
2023-04-15T19:19:34.724Z,9.70
2023-04-15T19:21:39.512Z,9.03
2023-04-15T19:23:43.734Z,10.70
2023-04-15T19:25:47.098Z,10.33
2023-04-15T19:27:50.568Z,10.57
2023-04-15T19:29:54.010Z,9.07
2023-04-15T19:31:57.383Z,10.73
2023-04-15T19:34:00.736Z,12.20
2023-04-15T19:36:06.414Z,10.67
2023-04-15T19:38:11.171Z,10.17
2023-04-15T19:40:14.712Z,11.20
2023-04-15T19:42:18.222Z,11.33
2023-04-15T19:44:21.595Z,9.23
2023-04-15T19:46:25.085Z,10.63
2023-04-15T19:48:28.687Z,9.93
2023-04-15T19:50:32.986Z,11.17
2023-04-15T19:52:36.478Z,11.43
2023-04-15T19:54:41.324Z,13.83
2023-04-15T19:56:44.682Z,13.70
2023-04-15T19:58:52.673Z,12.90
2023-04-15T20:00:56.172Z,13.20
2023-04-15T20:02:59.889Z,14.53
2023-04-15T20:05:03.384Z,14.20
2023-04-15T20:07:06.762Z,14.50
2023-04-15T20:09:11.418Z,14.00
2023-04-15T20:11:16.330Z,15.13
2023-04-15T20:13:19.644Z,12.90
2023-04-15T20:15:23.995Z,15.20
2023-04-15T20:17:27.584Z,15.47
2023-04-15T20:19:30.939Z,14.83
2023-04-15T20:21:34.342Z,18.63
2023-04-15T20:23:38.269Z,17.60
2023-04-15T20:25:42.775Z,17.80
2023-04-15T20:27:47.494Z,16.13
2023-04-15T20:29:54.070Z,19.40
2023-04-15T20:31:57.397Z,20.07
2023-04-15T20:34:00.731Z,19.60
2023-04-15T20:36:04.271Z,18.10
2023-04-15T20:38:07.687Z,18.30
2023-04-15T20:40:12.300Z,19.40
2023-04-15T20:42:15.902Z,19.47
2023-04-15T20:44:20.593Z,18.70
2023-04-15T20:46:25.253Z,19.87
2023-04-15T20:48:31.122Z,17.97
2023-04-15T20:50:34.499Z,18.20
2023-04-15T20:52:39.438Z,15.90
2023-04-15T20:54:42.885Z,15.77
2023-04-15T20:56:46.280Z,14.43
2023-04-15T20:58:49.752Z,16.10
2023-04-15T21:00:55.332Z,14.40
2023-04-15T21:02:58.844Z,15.77
2023-04-15T21:05:02.341Z,15.30
2023-04-15T21:07:05.974Z,14.60
2023-04-15T21:09:09.424Z,14.27
2023-04-15T21:11:14.850Z,15.93
2023-04-15T21:13:24.745Z,17.00
2023-04-15T21:15:28.315Z,15.17
2023-04-15T21:17:33.877Z,15.60
2023-04-15T21:19:37.996Z,15.23
2023-04-15T21:21:41.409Z,15.57
2023-04-15T21:23:44.721Z,15.00
2023-04-15T21:25:48.090Z,17.63
2023-04-15T21:27:51.450Z,16.00
2023-04-15T21:29:54.751Z,15.97
2023-04-15T21:31:58.156Z,14.70
2023-04-15T21:34:02.869Z,16.27
2023-04-15T21:36:06.675Z,16.67
2023-04-15T21:38:10.037Z,16.67
2023-04-15T21:40:14.735Z,17.00
2023-04-15T21:42:18.172Z,15.90
2023-04-15T21:44:21.568Z,17.37
2023-04-15T21:46:33.254Z,17.70
2023-04-15T21:48:39.175Z,17.50
2023-04-15T21:50:44.071Z,18.53
2023-04-15T21:52:47.375Z,18.27
2023-04-15T21:54:50.695Z,19.10
2023-04-15T21:56:54.068Z,19.50
2023-04-15T21:58:58.548Z,23.20
2023-04-15T22:01:01.925Z,20.40
2023-04-15T22:03:05.406Z,20.27
2023-04-15T22:05:09.292Z,22.57
2023-04-15T22:07:13.969Z,20.67
2023-04-15T22:09:18.326Z,22.90
2023-04-15T22:11:26.705Z,22.70
2023-04-15T22:13:30.443Z,23.67
2023-04-15T22:15:33.816Z,22.97
2023-04-15T22:17:37.278Z,20.97
2023-04-15T22:19:41.054Z,20.67
2023-04-15T22:21:44.466Z,22.87
2023-04-15T22:23:50.392Z,23.07
2023-04-15T22:25:53.686Z,20.67
2023-04-15T22:27:57.084Z,27.00
2023-04-15T22:30:00.616Z,26.17
2023-04-15T22:32:04.100Z,23.67
2023-04-15T22:34:08.031Z,24.93
2023-04-15T22:36:11.521Z,23.00
2023-04-15T22:38:14.840Z,24.37
2023-04-15T22:40:19.862Z,26.60
2023-04-15T22:42:23.270Z,24.00
2023-04-15T22:44:26.715Z,24.90
2023-04-15T22:46:30.111Z,21.40
2023-04-15T22:48:33.551Z,18.63
2023-04-15T22:50:38.270Z,18.93
2023-04-15T22:52:41.608Z,21.23
2023-04-15T22:54:45.131Z,20.30
2023-04-15T22:56:49.924Z,24.60
2023-04-15T22:58:53.428Z,20.70
2023-04-15T23:00:57.500Z,19.10
2023-04-15T23:03:02.153Z,17.73
2023-04-15T23:05:12.000Z,24.47
2023-04-15T23:07:19.159Z,22.40
2023-04-15T23:09:22.529Z,26.07
2023-04-15T23:11:25.902Z,27.10
2023-04-15T23:13:30.629Z,27.33
2023-04-15T23:15:34.101Z,29.07
2023-04-15T23:17:37.509Z,31.73
2023-04-15T23:19:41.119Z,28.13
2023-04-15T23:21:44.477Z,26.23
2023-04-15T23:23:47.797Z,28.97
2023-04-15T23:25:51.257Z,30.50
2023-04-15T23:27:54.765Z,29.97
2023-04-15T23:29:59.536Z,33.00
2023-04-15T23:32:03.077Z,34.27
2023-04-15T23:34:06.528Z,31.67
2023-04-15T23:36:09.944Z,30.10
2023-04-15T23:38:13.226Z,31.07
2023-04-15T23:40:16.738Z,33.40
2023-04-15T23:42:20.066Z,29.97
2023-04-15T23:44:23.426Z,26.50
2023-04-15T23:46:28.169Z,27.03
2023-04-15T23:48:32.596Z,27.80
2023-04-15T23:50:36.038Z,26.33
2023-04-15T23:52:39.356Z,25.07
2023-04-15T23:54:42.773Z,22.40
2023-04-15T23:56:46.149Z,21.87
2023-04-15T23:58:49.618Z,19.47
